sensor_id;sensor_type;location;lat;lon;timestamp;temperature;humidity
27224;DHT22;14965;50.660;13.226;2023-03-16T00:02:20;-2.20;99.90
27224;DHT22;14965;50.660;13.226;2023-03-16T00:04:46;-2.20;99.90
27224;DHT22;14965;50.660;13.226;2023-03-16T00:07:13;-2.20;99.90
27224;DHT22;14965;50.660;13.226;2023-03-16T00:09:40;-2.20;99.90
27224;DHT22;14965;50.660;13.226;2023-03-16T00:12:07;-2.20;99.90
27224;DHT22;14965;50.660;13.226;2023-03-16T00:14:37;-2.30;99.90
27224;DHT22;14965;50.660;13.226;2023-03-16T00:17:04;-2.20;99.90
27224;DHT22;14965;50.660;13.226;2023-03-16T00:19:30;-2.10;99.90
27224;DHT22;14965;50.660;13.226;2023-03-16T00:21:56;-2.10;99.90
27224;DHT22;14965;50.660;13.226;2023-03-16T00:24:22;-2.10;99.90
27224;DHT22;14965;50.660;13.226;2023-03-16T00:26:47;-2.10;99.90
27224;DHT22;14965;50.660;13.226;2023-03-16T00:29:13;-2.10;99.90
27224;DHT22;14965;50.660;13.226;2023-03-16T00:31:40;-2.10;99.90
27224;DHT22;14965;50.660;13.226;2023-03-16T00:34:08;-2.10;99.90
27224;DHT22;14965;50.660;13.226;2023-03-16T00:36:34;-2.10;99.90
27224;DHT22;14965;50.660;13.226;2023-03-16T00:39:00;-2.20;99.90
27224;DHT22;14965;50.660;13.226;2023-03-16T00:41:25;-2.20;99.90
27224;DHT22;14965;50.660;13.226;2023-03-16T00:43:51;-2.20;99.90
27224;DHT22;14965;50.660;13.226;2023-03-16T00:46:17;-2.20;99.90
27224;DHT22;14965;50.660;13.226;2023-03-16T00:48:45;-2.20;99.90
27224;DHT22;14965;50.660;13.226;2023-03-16T00:51:14;-2.10;99.90
27224;DHT22;14965;50.660;13.226;2023-03-16T00:53:43;-2.10;99.90
27224;DHT22;14965;50.660;13.226;2023-03-16T00:56:11;-2.10;99.90
27224;DHT22;14965;50.660;13.226;2023-03-16T00:58:39;-2.10;99.90
27224;DHT22;14965;50.660;13.226;2023-03-16T01:01:08;-2.20;99.90
27224;DHT22;14965;50.660;13.226;2023-03-16T01:03:36;-2.10;99.90
27224;DHT22;14965;50.660;13.226;2023-03-16T01:06:03;-2.20;99.90
27224;DHT22;14965;50.660;13.226;2023-03-16T01:08:31;-2.30;99.90
27224;DHT22;14965;50.660;13.226;2023-03-16T01:11:01;-2.30;99.90
27224;DHT22;14965;50.660;13.226;2023-03-16T01:13:28;-2.40;99.90
27224;DHT22;14965;50.660;13.226;2023-03-16T01:15:54;-2.40;99.90
27224;DHT22;14965;50.660;13.226;2023-03-16T01:18:20;-2.40;99.90
27224;DHT22;14965;50.660;13.226;2023-03-16T01:20:46;-2.40;99.90
27224;DHT22;14965;50.660;13.226;2023-03-16T01:23:12;-2.40;99.90
27224;DHT22;14965;50.660;13.226;2023-03-16T01:25:39;-2.40;99.90
27224;DHT22;14965;50.660;13.226;2023-03-16T01:28:05;-2.40;99.90
27224;DHT22;14965;50.660;13.226;2023-03-16T01:30:31;-2.40;99.90
27224;DHT22;14965;50.660;13.226;2023-03-16T01:32:57;-2.40;99.90
27224;DHT22;14965;50.660;13.226;2023-03-16T01:35:22;-2.40;99.90
27224;DHT22;14965;50.660;13.226;2023-03-16T01:37:48;-2.50;99.90
27224;DHT22;14965;50.660;13.226;2023-03-16T01:40:14;-2.50;99.90
27224;DHT22;14965;50.660;13.226;2023-03-16T01:42:43;-2.60;99.90
27224;DHT22;14965;50.660;13.226;2023-03-16T01:48:29;-2.80;99.90
27224;DHT22;14965;50.660;13.226;2023-03-16T01:50:57;-2.80;99.90
27224;DHT22;14965;50.660;13.226;2023-03-16T01:53:23;-2.80;99.90
27224;DHT22;14965;50.660;13.226;2023-03-16T01:55:50;-2.70;99.90
27224;DHT22;14965;50.660;13.226;2023-03-16T01:58:17;-2.80;99.90
27224;DHT22;14965;50.660;13.226;2023-03-16T02:00:43;-2.70;99.90
27224;DHT22;14965;50.660;13.226;2023-03-16T02:03:12;-2.70;99.90
27224;DHT22;14965;50.660;13.226;2023-03-16T02:05:43;-2.60;99.90
27224;DHT22;14965;50.660;13.226;2023-03-16T02:08:13;-2.60;99.90
27224;DHT22;14965;50.660;13.226;2023-03-16T02:10:40;-2.60;99.90
27224;DHT22;14965;50.660;13.226;2023-03-16T02:13:06;-2.60;99.90
27224;DHT22;14965;50.660;13.226;2023-03-16T02:15:33;-2.70;99.90
27224;DHT22;14965;50.660;13.226;2023-03-16T02:17:59;-2.70;99.90
27224;DHT22;14965;50.660;13.226;2023-03-16T02:20:34;-2.70;99.90
27224;DHT22;14965;50.660;13.226;2023-03-16T02:23:07;-2.70;99.90
27224;DHT22;14965;50.660;13.226;2023-03-16T02:25:40;-2.70;99.90
27224;DHT22;14965;50.660;13.226;2023-03-16T02:28:16;-2.70;99.90
27224;DHT22;14965;50.660;13.226;2023-03-16T02:30:47;-2.70;99.90
27224;DHT22;14965;50.660;13.226;2023-03-16T02:33:15;-2.70;99.90
27224;DHT22;14965;50.660;13.226;2023-03-16T02:35:42;-2.70;99.90
27224;DHT22;14965;50.660;13.226;2023-03-16T02:38:08;-2.80;99.90
27224;DHT22;14965;50.660;13.226;2023-03-16T02:40:45;-2.80;99.90
27224;DHT22;14965;50.660;13.226;2023-03-16T02:43:24;-2.80;99.90
27224;DHT22;14965;50.660;13.226;2023-03-16T02:45:55;-2.80;99.90
27224;DHT22;14965;50.660;13.226;2023-03-16T02:48:27;-2.80;99.90
27224;DHT22;14965;50.660;13.226;2023-03-16T02:50:57;-2.80;99.90
27224;DHT22;14965;50.660;13.226;2023-03-16T02:53:23;-2.80;99.90
27224;DHT22;14965;50.660;13.226;2023-03-16T02:55:51;-2.80;99.90
27224;DHT22;14965;50.660;13.226;2023-03-16T02:58:17;-2.80;99.90
27224;DHT22;14965;50.660;13.226;2023-03-16T03:00:42;-2.90;99.90
27224;DHT22;14965;50.660;13.226;2023-03-16T03:03:08;-2.90;99.90
27224;DHT22;14965;50.660;13.226;2023-03-16T03:05:35;-2.80;99.90
27224;DHT22;14965;50.660;13.226;2023-03-16T03:08:01;-2.90;99.90
27224;DHT22;14965;50.660;13.226;2023-03-16T03:10:26;-2.90;99.90
27224;DHT22;14965;50.660;13.226;2023-03-16T03:12:54;-2.90;99.90
27224;DHT22;14965;50.660;13.226;2023-03-16T03:15:20;-2.90;99.90
27224;DHT22;14965;50.660;13.226;2023-03-16T03:17:45;-2.90;99.90
27224;DHT22;14965;50.660;13.226;2023-03-16T03:20:12;-3.00;99.90
27224;DHT22;14965;50.660;13.226;2023-03-16T03:22:39;-3.00;99.90
27224;DHT22;14965;50.660;13.226;2023-03-16T03:25:05;-3.00;99.90
27224;DHT22;14965;50.660;13.226;2023-03-16T03:27:31;-3.00;99.90
27224;DHT22;14965;50.660;13.226;2023-03-16T03:29:59;-3.10;99.90
27224;DHT22;14965;50.660;13.226;2023-03-16T03:32:24;-3.10;99.90
27224;DHT22;14965;50.660;13.226;2023-03-16T03:34:50;-3.10;99.90
27224;DHT22;14965;50.660;13.226;2023-03-16T03:37:16;-3.10;99.90
27224;DHT22;14965;50.660;13.226;2023-03-16T03:39:45;-3.10;99.90
27224;DHT22;14965;50.660;13.226;2023-03-16T03:42:11;-3.10;99.90
27224;DHT22;14965;50.660;13.226;2023-03-16T03:44:37;-3.20;99.90
27224;DHT22;14965;50.660;13.226;2023-03-16T03:47:04;-3.20;99.90
27224;DHT22;14965;50.660;13.226;2023-03-16T03:49:30;-3.20;99.90
27224;DHT22;14965;50.660;13.226;2023-03-16T03:51:57;-3.20;99.90
27224;DHT22;14965;50.660;13.226;2023-03-16T03:54:22;-3.30;99.90
27224;DHT22;14965;50.660;13.226;2023-03-16T03:56:48;-3.30;99.90
27224;DHT22;14965;50.660;13.226;2023-03-16T03:59:15;-3.40;99.90
27224;DHT22;14965;50.660;13.226;2023-03-16T04:01:41;-3.40;99.90
27224;DHT22;14965;50.660;13.226;2023-03-16T04:04:08;-3.40;99.90
27224;DHT22;14965;50.660;13.226;2023-03-16T04:06:34;-3.40;99.90
27224;DHT22;14965;50.660;13.226;2023-03-16T04:09:00;-3.30;99.90
27224;DHT22;14965;50.660;13.226;2023-03-16T04:11:26;-3.30;99.90
27224;DHT22;14965;50.660;13.226;2023-03-16T04:13:52;-3.30;99.90
27224;DHT22;14965;50.660;13.226;2023-03-16T04:16:18;-3.30;99.90
27224;DHT22;14965;50.660;13.226;2023-03-16T04:18:44;-3.30;99.90
27224;DHT22;14965;50.660;13.226;2023-03-16T04:21:14;-3.30;99.90
27224;DHT22;14965;50.660;13.226;2023-03-16T04:23:42;-3.40;99.90
27224;DHT22;14965;50.660;13.226;2023-03-16T04:26:08;-3.30;99.90
27224;DHT22;14965;50.660;13.226;2023-03-16T04:28:34;-3.20;99.90
27224;DHT22;14965;50.660;13.226;2023-03-16T04:31:00;-3.20;99.90
27224;DHT22;14965;50.660;13.226;2023-03-16T04:33:26;-3.20;99.90
27224;DHT22;14965;50.660;13.226;2023-03-16T04:35:52;-3.10;99.90
27224;DHT22;14965;50.660;13.226;2023-03-16T04:38:20;-3.10;99.90
27224;DHT22;14965;50.660;13.226;2023-03-16T04:40:45;-3.10;99.90
27224;DHT22;14965;50.660;13.226;2023-03-16T04:43:11;-3.20;99.90
27224;DHT22;14965;50.660;13.226;2023-03-16T04:45:38;-3.20;99.90
27224;DHT22;14965;50.660;13.226;2023-03-16T04:48:04;-3.30;99.90
27224;DHT22;14965;50.660;13.226;2023-03-16T04:50:30;-3.30;99.90
27224;DHT22;14965;50.660;13.226;2023-03-16T04:52:56;-3.30;99.90
27224;DHT22;14965;50.660;13.226;2023-03-16T04:55:23;-3.30;99.90
27224;DHT22;14965;50.660;13.226;2023-03-16T04:57:49;-3.30;99.90
27224;DHT22;14965;50.660;13.226;2023-03-16T05:00:15;-3.30;99.90
27224;DHT22;14965;50.660;13.226;2023-03-16T05:02:41;-3.30;99.90
27224;DHT22;14965;50.660;13.226;2023-03-16T05:05:08;-3.30;99.90
27224;DHT22;14965;50.660;13.226;2023-03-16T05:07:34;-3.30;99.90
27224;DHT22;14965;50.660;13.226;2023-03-16T05:09:59;-3.20;99.90
27224;DHT22;14965;50.660;13.226;2023-03-16T05:12:27;-3.30;99.90
27224;DHT22;14965;50.660;13.226;2023-03-16T05:14:52;-3.30;99.90
27224;DHT22;14965;50.660;13.226;2023-03-16T05:17:18;-3.30;99.90
27224;DHT22;14965;50.660;13.226;2023-03-16T05:19:44;-3.40;99.90
27224;DHT22;14965;50.660;13.226;2023-03-16T05:22:10;-3.30;99.90
27224;DHT22;14965;50.660;13.226;2023-03-16T05:24:36;-3.30;99.90
27224;DHT22;14965;50.660;13.226;2023-03-16T05:27:02;-3.30;99.90
27224;DHT22;14965;50.660;13.226;2023-03-16T05:29:30;-3.30;99.90
27224;DHT22;14965;50.660;13.226;2023-03-16T05:31:56;-3.30;99.90
27224;DHT22;14965;50.660;13.226;2023-03-16T05:34:22;-3.30;99.90
27224;DHT22;14965;50.660;13.226;2023-03-16T05:36:48;-3.30;99.90
27224;DHT22;14965;50.660;13.226;2023-03-16T05:39:14;-3.30;99.90
27224;DHT22;14965;50.660;13.226;2023-03-16T05:41:40;-3.30;99.90
27224;DHT22;14965;50.660;13.226;2023-03-16T05:44:06;-3.30;99.90
27224;DHT22;14965;50.660;13.226;2023-03-16T05:46:34;-3.30;99.90
27224;DHT22;14965;50.660;13.226;2023-03-16T05:49:00;-3.30;99.90
27224;DHT22;14965;50.660;13.226;2023-03-16T05:51:26;-3.40;99.90
27224;DHT22;14965;50.660;13.226;2023-03-16T05:53:52;-3.40;99.90
27224;DHT22;14965;50.660;13.226;2023-03-16T05:56:18;-3.30;99.90
27224;DHT22;14965;50.660;13.226;2023-03-16T05:58:44;-3.20;99.90
27224;DHT22;14965;50.660;13.226;2023-03-16T06:01:10;-3.20;99.90
27224;DHT22;14965;50.660;13.226;2023-03-16T06:03:37;-3.20;99.90
27224;DHT22;14965;50.660;13.226;2023-03-16T06:06:04;-3.10;99.90
27224;DHT22;14965;50.660;13.226;2023-03-16T06:08:30;-3.10;99.90
27224;DHT22;14965;50.660;13.226;2023-03-16T06:10:56;-3.10;99.90
27224;DHT22;14965;50.660;13.226;2023-03-16T06:13:22;-3.00;99.90
27224;DHT22;14965;50.660;13.226;2023-03-16T06:15:48;-2.90;99.90
27224;DHT22;14965;50.660;13.226;2023-03-16T06:18:14;-2.90;99.90
27224;DHT22;14965;50.660;13.226;2023-03-16T06:20:41;-2.90;99.90
27224;DHT22;14965;50.660;13.226;2023-03-16T06:23:07;-2.80;99.90
27224;DHT22;14965;50.660;13.226;2023-03-16T06:25:33;-2.70;99.90
27224;DHT22;14965;50.660;13.226;2023-03-16T06:27:58;-2.70;99.90
27224;DHT22;14965;50.660;13.226;2023-03-16T06:30:24;-2.70;99.90
27224;DHT22;14965;50.660;13.226;2023-03-16T06:32:50;-2.70;99.90
27224;DHT22;14965;50.660;13.226;2023-03-16T06:35:16;-2.60;99.90
27224;DHT22;14965;50.660;13.226;2023-03-16T06:37:43;-2.50;99.90
27224;DHT22;14965;50.660;13.226;2023-03-16T06:40:10;-2.40;99.90
27224;DHT22;14965;50.660;13.226;2023-03-16T06:42:36;-2.30;99.90
27224;DHT22;14965;50.660;13.226;2023-03-16T06:45:03;-2.20;99.90
27224;DHT22;14965;50.660;13.226;2023-03-16T06:47:29;-2.20;99.90
27224;DHT22;14965;50.660;13.226;2023-03-16T06:49:55;-2.20;99.90
27224;DHT22;14965;50.660;13.226;2023-03-16T06:52:21;-2.10;99.90
27224;DHT22;14965;50.660;13.226;2023-03-16T06:54:48;-1.90;99.90
27224;DHT22;14965;50.660;13.226;2023-03-16T06:57:14;-1.80;99.90
27224;DHT22;14965;50.660;13.226;2023-03-16T06:59:40;-1.80;99.90
27224;DHT22;14965;50.660;13.226;2023-03-16T07:02:06;-1.70;99.90
27224;DHT22;14965;50.660;13.226;2023-03-16T07:04:33;-1.60;99.90
27224;DHT22;14965;50.660;13.226;2023-03-16T07:06:59;-1.40;99.90
27224;DHT22;14965;50.660;13.226;2023-03-16T07:09:25;-1.30;99.90
27224;DHT22;14965;50.660;13.226;2023-03-16T07:11:52;-1.10;99.90
27224;DHT22;14965;50.660;13.226;2023-03-16T07:14:18;-1.00;99.90
27224;DHT22;14965;50.660;13.226;2023-03-16T07:16:44;-0.80;99.90
27224;DHT22;14965;50.660;13.226;2023-03-16T07:19:10;-0.70;99.90
27224;DHT22;14965;50.660;13.226;2023-03-16T07:21:36;-0.60;99.90
27224;DHT22;14965;50.660;13.226;2023-03-16T07:24:02;-0.50;99.90
27224;DHT22;14965;50.660;13.226;2023-03-16T07:26:28;-0.40;99.90
27224;DHT22;14965;50.660;13.226;2023-03-16T07:28:55;-0.30;99.90
27224;DHT22;14965;50.660;13.226;2023-03-16T07:31:21;-0.30;99.90
27224;DHT22;14965;50.660;13.226;2023-03-16T07:33:47;-0.20;99.90
27224;DHT22;14965;50.660;13.226;2023-03-16T07:36:12;-0.20;99.90
27224;DHT22;14965;50.660;13.226;2023-03-16T07:38:38;-0.10;99.90
27224;DHT22;14965;50.660;13.226;2023-03-16T07:41:04;0.00;99.90
27224;DHT22;14965;50.660;13.226;2023-03-16T07:43:30;0.10;99.90
27224;DHT22;14965;50.660;13.226;2023-03-16T07:45:57;0.20;99.90
27224;DHT22;14965;50.660;13.226;2023-03-16T07:48:24;0.20;99.90
27224;DHT22;14965;50.660;13.226;2023-03-16T07:50:50;0.20;99.90
27224;DHT22;14965;50.660;13.226;2023-03-16T07:53:16;0.40;99.90
27224;DHT22;14965;50.660;13.226;2023-03-16T07:55:42;0.40;99.90
27224;DHT22;14965;50.660;13.226;2023-03-16T07:58:08;0.50;99.90
27224;DHT22;14965;50.660;13.226;2023-03-16T08:00:35;0.60;99.90
27224;DHT22;14965;50.660;13.226;2023-03-16T08:03:03;0.70;99.90
27224;DHT22;14965;50.660;13.226;2023-03-16T08:05:30;0.80;99.90
27224;DHT22;14965;50.660;13.226;2023-03-16T08:07:55;0.80;99.90
27224;DHT22;14965;50.660;13.226;2023-03-16T08:10:22;0.80;99.90
27224;DHT22;14965;50.660;13.226;2023-03-16T08:12:48;0.80;99.90
27224;DHT22;14965;50.660;13.226;2023-03-16T08:15:14;0.80;99.90
27224;DHT22;14965;50.660;13.226;2023-03-16T08:17:40;0.90;99.90
27224;DHT22;14965;50.660;13.226;2023-03-16T08:20:08;0.90;99.90
27224;DHT22;14965;50.660;13.226;2023-03-16T08:22:35;0.90;99.90
27224;DHT22;14965;50.660;13.226;2023-03-16T08:25:01;0.90;99.90
27224;DHT22;14965;50.660;13.226;2023-03-16T08:27:27;1.00;99.90
27224;DHT22;14965;50.660;13.226;2023-03-16T08:29:54;1.10;99.90
27224;DHT22;14965;50.660;13.226;2023-03-16T08:32:20;1.10;99.90
27224;DHT22;14965;50.660;13.226;2023-03-16T08:34:46;1.20;99.90
27224;DHT22;14965;50.660;13.226;2023-03-16T08:37:13;1.20;99.90
27224;DHT22;14965;50.660;13.226;2023-03-16T08:39:39;1.30;99.90
27224;DHT22;14965;50.660;13.226;2023-03-16T08:42:05;1.40;99.90
27224;DHT22;14965;50.660;13.226;2023-03-16T08:44:32;1.60;99.90
27224;DHT22;14965;50.660;13.226;2023-03-16T08:46:58;1.80;99.90
27224;DHT22;14965;50.660;13.226;2023-03-16T08:49:24;1.80;99.90
27224;DHT22;14965;50.660;13.226;2023-03-16T09:03:58;2.10;99.90
27224;DHT22;14965;50.660;13.226;2023-03-16T09:06:39;2.20;99.90
27224;DHT22;14965;50.660;13.226;2023-03-16T09:09:05;2.20;99.90
27224;DHT22;14965;50.660;13.226;2023-03-16T09:11:45;2.10;99.90
27224;DHT22;14965;50.660;13.226;2023-03-16T09:14:22;2.20;99.90
27224;DHT22;14965;50.660;13.226;2023-03-16T09:16:53;2.30;99.90
27224;DHT22;14965;50.660;13.226;2023-03-16T09:19:19;2.40;99.90
27224;DHT22;14965;50.660;13.226;2023-03-16T09:21:45;2.40;99.90
27224;DHT22;14965;50.660;13.226;2023-03-16T09:24:11;2.40;99.90
27224;DHT22;14965;50.660;13.226;2023-03-16T09:26:37;2.50;99.90
27224;DHT22;14965;50.660;13.226;2023-03-16T09:29:25;2.50;99.90
27224;DHT22;14965;50.660;13.226;2023-03-16T09:32:03;2.50;99.90
27224;DHT22;14965;50.660;13.226;2023-03-16T09:34:51;2.60;99.90
27224;DHT22;14965;50.660;13.226;2023-03-16T09:37:20;2.70;99.90
27224;DHT22;14965;50.660;13.226;2023-03-16T09:39:59;2.90;99.90
27224;DHT22;14965;50.660;13.226;2023-03-16T09:42:45;2.90;99.90
27224;DHT22;14965;50.660;13.226;2023-03-16T09:45:48;3.00;99.90
27224;DHT22;14965;50.660;13.226;2023-03-16T09:48:22;3.20;99.90
27224;DHT22;14965;50.660;13.226;2023-03-16T09:50:52;3.20;99.90
27224;DHT22;14965;50.660;13.226;2023-03-16T09:53:23;3.30;99.90
27224;DHT22;14965;50.660;13.226;2023-03-16T09:55:57;3.30;99.90
27224;DHT22;14965;50.660;13.226;2023-03-16T09:58:27;3.20;99.90
27224;DHT22;14965;50.660;13.226;2023-03-16T10:01:00;3.30;99.90
27224;DHT22;14965;50.660;13.226;2023-03-16T10:03:57;3.40;99.90
27224;DHT22;14965;50.660;13.226;2023-03-16T10:06:31;3.50;99.90
27224;DHT22;14965;50.660;13.226;2023-03-16T10:09:23;3.50;99.90
27224;DHT22;14965;50.660;13.226;2023-03-16T10:11:56;3.50;99.90
27224;DHT22;14965;50.660;13.226;2023-03-16T10:14:29;3.50;99.90
27224;DHT22;14965;50.660;13.226;2023-03-16T10:17:05;3.60;99.90
27224;DHT22;14965;50.660;13.226;2023-03-16T10:19:42;3.80;99.90
27224;DHT22;14965;50.660;13.226;2023-03-16T10:22:19;3.90;99.90
27224;DHT22;14965;50.660;13.226;2023-03-16T10:24:57;4.00;99.90
27224;DHT22;14965;50.660;13.226;2023-03-16T10:27:31;4.00;99.90
27224;DHT22;14965;50.660;13.226;2023-03-16T10:29:58;4.10;99.90
27224;DHT22;14965;50.660;13.226;2023-03-16T10:32:31;4.20;99.90
27224;DHT22;14965;50.660;13.226;2023-03-16T10:35:02;4.10;99.90
27224;DHT22;14965;50.660;13.226;2023-03-16T10:37:31;4.20;99.90
27224;DHT22;14965;50.660;13.226;2023-03-16T10:39:58;4.30;99.90
27224;DHT22;14965;50.660;13.226;2023-03-16T10:42:24;4.40;99.90
27224;DHT22;14965;50.660;13.226;2023-03-16T10:44:56;4.50;99.90
27224;DHT22;14965;50.660;13.226;2023-03-16T10:47:26;4.50;99.90
27224;DHT22;14965;50.660;13.226;2023-03-16T10:49:53;4.60;99.90
27224;DHT22;14965;50.660;13.226;2023-03-16T10:52:32;4.60;99.90
27224;DHT22;14965;50.660;13.226;2023-03-16T10:55:01;4.70;99.90
27224;DHT22;14965;50.660;13.226;2023-03-16T10:57:35;4.80;99.90
27224;DHT22;14965;50.660;13.226;2023-03-16T11:00:10;4.80;99.90
27224;DHT22;14965;50.660;13.226;2023-03-16T11:02:40;4.80;99.90
27224;DHT22;14965;50.660;13.226;2023-03-16T11:05:12;4.90;99.90
27224;DHT22;14965;50.660;13.226;2023-03-16T11:07:46;4.90;99.90
27224;DHT22;14965;50.660;13.226;2023-03-16T11:10:24;4.90;99.90
27224;DHT22;14965;50.660;13.226;2023-03-16T11:12:53;4.80;99.90
27224;DHT22;14965;50.660;13.226;2023-03-16T11:15:19;4.80;99.90
27224;DHT22;14965;50.660;13.226;2023-03-16T11:17:49;4.90;99.90
27224;DHT22;14965;50.660;13.226;2023-03-16T11:20:20;4.90;99.90
27224;DHT22;14965;50.660;13.226;2023-03-16T11:22:51;5.00;99.90
27224;DHT22;14965;50.660;13.226;2023-03-16T11:25:20;5.00;99.90
27224;DHT22;14965;50.660;13.226;2023-03-16T11:27:56;5.00;99.90
27224;DHT22;14965;50.660;13.226;2023-03-16T11:30:34;5.10;99.90
27224;DHT22;14965;50.660;13.226;2023-03-16T11:33:08;5.10;99.90
27224;DHT22;14965;50.660;13.226;2023-03-16T11:35:44;5.20;99.90
27224;DHT22;14965;50.660;13.226;2023-03-16T11:38:18;5.20;99.90
27224;DHT22;14965;50.660;13.226;2023-03-16T11:40:55;5.30;99.90
27224;DHT22;14965;50.660;13.226;2023-03-16T11:43:46;5.30;99.90
27224;DHT22;14965;50.660;13.226;2023-03-16T11:46:18;5.30;99.90
27224;DHT22;14965;50.660;13.226;2023-03-16T11:48:52;5.30;99.90
27224;DHT22;14965;50.660;13.226;2023-03-16T11:51:34;5.30;99.90
27224;DHT22;14965;50.660;13.226;2023-03-16T11:54:38;5.40;99.90
27224;DHT22;14965;50.660;13.226;2023-03-16T11:57:27;5.50;99.90
27224;DHT22;14965;50.660;13.226;2023-03-16T12:00:12;5.40;99.90
27224;DHT22;14965;50.660;13.226;2023-03-16T12:03:03;5.50;99.90
27224;DHT22;14965;50.660;13.226;2023-03-16T12:05:54;5.30;99.90
27224;DHT22;14965;50.660;13.226;2023-03-16T12:08:32;5.20;99.90
27224;DHT22;14965;50.660;13.226;2023-03-16T12:11:19;5.20;99.90
27224;DHT22;14965;50.660;13.226;2023-03-16T12:14:01;5.20;99.90
27224;DHT22;14965;50.660;13.226;2023-03-16T12:16:44;5.20;99.90
27224;DHT22;14965;50.660;13.226;2023-03-16T12:19:19;5.20;99.90
27224;DHT22;14965;50.660;13.226;2023-03-16T12:21:56;5.20;99.90
27224;DHT22;14965;50.660;13.226;2023-03-16T12:24:30;5.10;99.90
27224;DHT22;14965;50.660;13.226;2023-03-16T12:27:04;5.20;99.90
27224;DHT22;14965;50.660;13.226;2023-03-16T12:29:40;5.30;99.90
27224;DHT22;14965;50.660;13.226;2023-03-16T12:32:16;5.30;99.90
27224;DHT22;14965;50.660;13.226;2023-03-16T12:34:49;5.30;99.90
27224;DHT22;14965;50.660;13.226;2023-03-16T12:37:32;5.30;99.90
27224;DHT22;14965;50.660;13.226;2023-03-16T12:40:08;5.30;99.90
27224;DHT22;14965;50.660;13.226;2023-03-16T12:42:59;5.20;99.90
27224;DHT22;14965;50.660;13.226;2023-03-16T12:45:38;5.30;99.90
27224;DHT22;14965;50.660;13.226;2023-03-16T12:48:18;5.40;99.90
27224;DHT22;14965;50.660;13.226;2023-03-16T12:50:52;5.50;99.90
27224;DHT22;14965;50.660;13.226;2023-03-16T12:53:40;5.60;99.90
27224;DHT22;14965;50.660;13.226;2023-03-16T12:56:09;5.50;99.90
27224;DHT22;14965;50.660;13.226;2023-03-16T12:58:40;5.40;99.90
27224;DHT22;14965;50.660;13.226;2023-03-16T13:01:10;5.40;99.90
27224;DHT22;14965;50.660;13.226;2023-03-16T13:03:40;5.30;99.90
27224;DHT22;14965;50.660;13.226;2023-03-16T13:06:16;5.30;99.90
27224;DHT22;14965;50.660;13.226;2023-03-16T13:08:49;5.40;99.90
27224;DHT22;14965;50.660;13.226;2023-03-16T13:11:20;5.40;99.90
27224;DHT22;14965;50.660;13.226;2023-03-16T13:14:03;5.40;99.90
27224;DHT22;14965;50.660;13.226;2023-03-16T13:16:32;5.30;99.90
27224;DHT22;14965;50.660;13.226;2023-03-16T13:19:16;5.30;99.90
27224;DHT22;14965;50.660;13.226;2023-03-16T13:22:00;5.30;99.90
27224;DHT22;14965;50.660;13.226;2023-03-16T13:29:09;5.40;99.90
27224;DHT22;14965;50.660;13.226;2023-03-16T13:31:59;5.30;99.90
27224;DHT22;14965;50.660;13.226;2023-03-16T13:34:30;5.30;99.90
27224;DHT22;14965;50.660;13.226;2023-03-16T13:36:59;5.30;99.90
27224;DHT22;14965;50.660;13.226;2023-03-16T13:39:26;5.20;99.90
27224;DHT22;14965;50.660;13.226;2023-03-16T13:41:58;5.20;99.90
27224;DHT22;14965;50.660;13.226;2023-03-16T13:44:28;5.10;99.90
27224;DHT22;14965;50.660;13.226;2023-03-16T13:46:56;5.10;99.90
27224;DHT22;14965;50.660;13.226;2023-03-16T13:49:26;5.10;99.90
27224;DHT22;14965;50.660;13.226;2023-03-16T13:51:52;5.00;99.90
27224;DHT22;14965;50.660;13.226;2023-03-16T13:54:23;5.00;99.90
27224;DHT22;14965;50.660;13.226;2023-03-16T13:56:51;5.00;99.90
27224;DHT22;14965;50.660;13.226;2023-03-16T13:59:21;5.00;99.90
27224;DHT22;14965;50.660;13.226;2023-03-16T14:01:54;5.00;99.90
27224;DHT22;14965;50.660;13.226;2023-03-16T14:04:24;5.00;99.90
27224;DHT22;14965;50.660;13.226;2023-03-16T14:06:52;5.10;99.90
27224;DHT22;14965;50.660;13.226;2023-03-16T14:09:23;5.20;99.90
27224;DHT22;14965;50.660;13.226;2023-03-16T14:11:51;5.20;99.90
27224;DHT22;14965;50.660;13.226;2023-03-16T14:14:23;5.20;99.90
27224;DHT22;14965;50.660;13.226;2023-03-16T14:16:58;5.20;99.90
27224;DHT22;14965;50.660;13.226;2023-03-16T14:19:26;5.10;99.90
27224;DHT22;14965;50.660;13.226;2023-03-16T14:21:51;5.00;99.90
27224;DHT22;14965;50.660;13.226;2023-03-16T14:24:27;5.00;99.90
27224;DHT22;14965;50.660;13.226;2023-03-16T14:26:55;5.00;99.90
27224;DHT22;14965;50.660;13.226;2023-03-16T14:29:26;5.00;99.90
27224;DHT22;14965;50.660;13.226;2023-03-16T14:31:54;5.00;99.90
27224;DHT22;14965;50.660;13.226;2023-03-16T14:34:27;5.10;99.90
27224;DHT22;14965;50.660;13.226;2023-03-16T14:37:05;5.10;99.90
27224;DHT22;14965;50.660;13.226;2023-03-16T14:39:31;5.00;99.90
27224;DHT22;14965;50.660;13.226;2023-03-16T14:42:01;5.00;99.90
27224;DHT22;14965;50.660;13.226;2023-03-16T14:44:30;5.00;99.90
27224;DHT22;14965;50.660;13.226;2023-03-16T14:47:01;5.00;99.90
27224;DHT22;14965;50.660;13.226;2023-03-16T14:49:30;5.00;99.90
27224;DHT22;14965;50.660;13.226;2023-03-16T14:52:01;5.00;99.90
27224;DHT22;14965;50.660;13.226;2023-03-16T14:54:29;5.00;99.90
27224;DHT22;14965;50.660;13.226;2023-03-16T15:04:01;4.90;99.90
27224;DHT22;14965;50.660;13.226;2023-03-16T15:06:27;4.90;99.90
27224;DHT22;14965;50.660;13.226;2023-03-16T15:08:53;4.90;99.90
27224;DHT22;14965;50.660;13.226;2023-03-16T15:11:19;4.80;99.90
27224;DHT22;14965;50.660;13.226;2023-03-16T15:13:45;4.80;99.90
27224;DHT22;14965;50.660;13.226;2023-03-16T15:16:13;4.80;99.90
27224;DHT22;14965;50.660;13.226;2023-03-16T15:18:40;4.80;99.90
27224;DHT22;14965;50.660;13.226;2023-03-16T15:21:11;4.80;99.90
27224;DHT22;14965;50.660;13.226;2023-03-16T15:23:45;4.80;99.90
27224;DHT22;14965;50.660;13.226;2023-03-16T15:26:20;4.70;99.90
27224;DHT22;14965;50.660;13.226;2023-03-16T15:28:48;4.70;99.90
27224;DHT22;14965;50.660;13.226;2023-03-16T15:31:14;4.70;99.90
27224;DHT22;14965;50.660;13.226;2023-03-16T15:33:40;4.70;99.90
27224;DHT22;14965;50.660;13.226;2023-03-16T15:36:14;4.70;99.90
27224;DHT22;14965;50.660;13.226;2023-03-16T15:38:44;4.70;99.90
27224;DHT22;14965;50.660;13.226;2023-03-16T15:41:12;4.70;99.90
27224;DHT22;14965;50.660;13.226;2023-03-16T15:43:39;4.60;99.90
27224;DHT22;14965;50.660;13.226;2023-03-16T15:46:05;4.60;99.90
27224;DHT22;14965;50.660;13.226;2023-03-16T15:48:31;4.60;99.90
27224;DHT22;14965;50.660;13.226;2023-03-16T15:50:59;4.60;99.90
27224;DHT22;14965;50.660;13.226;2023-03-16T15:53:30;4.60;99.90
27224;DHT22;14965;50.660;13.226;2023-03-16T15:56:01;4.60;99.90
27224;DHT22;14965;50.660;13.226;2023-03-16T15:58:30;4.50;99.90
27224;DHT22;14965;50.660;13.226;2023-03-16T16:00:59;4.50;99.90
27224;DHT22;14965;50.660;13.226;2023-03-16T16:03:26;4.40;99.90
27224;DHT22;14965;50.660;13.226;2023-03-16T16:05:52;4.40;99.90